KBQK/BQK METAR and TAF weather

Enter ICAO airport designator
Station Type Date Time Source
KBQK METAR 2020/10/20 17:55 UTC NOAA

KBQK 201755Z AUTO 03007KT 10SM BKN012 BKN023 OVC055 25/22 A3012 RMK AO2 LTG DSNT S T02460215 10258 20204


Station Type Date Time Source
KBQK Decoded METAR 2020/10/20 17:55 UTC NOAA

Brunswick / Glynco, GA, United States (KBQK) 31-15N 081-28W
Oct 20, 2020 - 01:55 PM EDT / 2020.10.20 1755 UTC
Wind: from the NNE (030 degrees) at 8 MPH (7 KT):0
Visibility: 10 mile(s):0
Sky conditions: overcast
Weather: Lightning observed
Temperature: 76.3 F (24.6 C)
Dew Point: 70.7 F (21.5 C)
Relative Humidity: 82%
Pressure (altimeter): 30.12 in. Hg (1019 hPa)
ob: KBQK 201755Z AUTO 03007KT 10SM BKN012 BKN023 OVC055 25/22 A3012 RMK AO2 LTG DSNT S T02460215 10258 20204
cycle: 18

Station Type Date Time Source
KBQK TAF UTC NOAA

Error!

Example: see airport list